sensor_id;sensor_type;location;lat;lon;timestamp;P1;durP1;ratioP1;P2;durP2;ratioP2
7289;SDS011;63176;52.678;13.250;2022-10-04T00:01:11;11.23;;;1.05;;
7289;SDS011;63176;52.678;13.250;2022-10-04T00:03:45;6.60;;;1.10;;
7289;SDS011;63176;52.678;13.250;2022-10-04T00:06:20;2.53;;;1.45;;
7289;SDS011;63176;52.678;13.250;2022-10-04T00:08:51;4.35;;;1.40;;
7289;SDS011;63176;52.678;13.250;2022-10-04T00:11:29;8.25;;;1.40;;
7289;SDS011;63176;52.678;13.250;2022-10-04T00:14:04;10.02;;;2.20;;
7289;SDS011;63176;52.678;13.250;2022-10-04T00:16:38;3.05;;;1.17;;
7289;SDS011;63176;52.678;13.250;2022-10-04T00:32:30;5.63;;;1.45;;
7289;SDS011;63176;52.678;13.250;2022-10-04T00:35:53;4.63;;;1.48;;
7289;SDS011;63176;52.678;13.250;2022-10-04T00:43:08;8.97;;;1.27;;
7289;SDS011;63176;52.678;13.250;2022-10-04T00:45:46;3.28;;;1.40;;
7289;SDS011;63176;52.678;13.250;2022-10-04T00:48:28;3.42;;;1.20;;
7289;SDS011;63176;52.678;13.250;2022-10-04T00:51:00;4.72;;;1.23;;
7289;SDS011;63176;52.678;13.250;2022-10-04T00:53:40;3.47;;;1.00;;
7289;SDS011;63176;52.678;13.250;2022-10-04T00:56:24;6.90;;;1.30;;
7289;SDS011;63176;52.678;13.250;2022-10-04T01:01:40;7.70;;;1.17;;
7289;SDS011;63176;52.678;13.250;2022-10-04T01:04:20;1.55;;;1.30;;
7289;SDS011;63176;52.678;13.250;2022-10-04T01:06:55;3.47;;;1.67;;
7289;SDS011;63176;52.678;13.250;2022-10-04T01:09:23;3.67;;;1.42;;
7289;SDS011;63176;52.678;13.250;2022-10-04T01:11:55;5.45;;;1.50;;
7289;SDS011;63176;52.678;13.250;2022-10-04T01:14:41;8.05;;;1.70;;
7289;SDS011;63176;52.678;13.250;2022-10-04T01:17:31;7.97;;;1.80;;
7289;SDS011;63176;52.678;13.250;2022-10-04T01:19:57;4.17;;;1.17;;
7289;SDS011;63176;52.678;13.250;2022-10-04T01:25:04;6.28;;;1.42;;
7289;SDS011;63176;52.678;13.250;2022-10-04T01:27:40;7.80;;;1.50;;
7289;SDS011;63176;52.678;13.250;2022-10-04T01:30:11;6.50;;;1.08;;
7289;SDS011;63176;52.678;13.250;2022-10-04T01:32:39;3.40;;;1.48;;
7289;SDS011;63176;52.678;13.250;2022-10-04T01:35:08;5.20;;;1.67;;
7289;SDS011;63176;52.678;13.250;2022-10-04T01:37:36;2.70;;;1.40;;
7289;SDS011;63176;52.678;13.250;2022-10-04T01:40:03;3.58;;;1.60;;
7289;SDS011;63176;52.678;13.250;2022-10-04T01:50:15;3.10;;;1.20;;
7289;SDS011;63176;52.678;13.250;2022-10-04T01:53:15;5.07;;;1.38;;
7289;SDS011;63176;52.678;13.250;2022-10-04T01:55:47;7.67;;;1.60;;
7289;SDS011;63176;52.678;13.250;2022-10-04T02:01:00;13.55;;;1.65;;
7289;SDS011;63176;52.678;13.250;2022-10-04T02:03:35;7.35;;;1.58;;
7289;SDS011;63176;52.678;13.250;2022-10-04T02:06:08;7.18;;;1.48;;
7289;SDS011;63176;52.678;13.250;2022-10-04T02:08:38;2.53;;;1.25;;
7289;SDS011;63176;52.678;13.250;2022-10-04T02:11:14;11.40;;;1.80;;
7289;SDS011;63176;52.678;13.250;2022-10-04T02:13:46;13.63;;;1.55;;
7289;SDS011;63176;52.678;13.250;2022-10-04T02:16:15;15.63;;;2.50;;
7289;SDS011;63176;52.678;13.250;2022-10-04T02:18:42;5.25;;;1.50;;
7289;SDS011;63176;52.678;13.250;2022-10-04T02:21:09;7.50;;;1.90;;
7289;SDS011;63176;52.678;13.250;2022-10-04T02:23:36;2.38;;;1.60;;
7289;SDS011;63176;52.678;13.250;2022-10-04T02:26:05;4.78;;;1.77;;
7289;SDS011;63176;52.678;13.250;2022-10-04T02:28:32;4.30;;;1.38;;
7289;SDS011;63176;52.678;13.250;2022-10-04T02:30:59;7.22;;;1.48;;
7289;SDS011;63176;52.678;13.250;2022-10-04T02:33:45;10.05;;;1.77;;
7289;SDS011;63176;52.678;13.250;2022-10-04T02:36:13;4.45;;;1.40;;
7289;SDS011;63176;52.678;13.250;2022-10-04T02:38:41;5.72;;;1.48;;
7289;SDS011;63176;52.678;13.250;2022-10-04T02:46:24;7.65;;;1.50;;
7289;SDS011;63176;52.678;13.250;2022-10-04T02:49:00;5.25;;;1.35;;
7289;SDS011;63176;52.678;13.250;2022-10-04T02:51:39;7.30;;;1.55;;
7289;SDS011;63176;52.678;13.250;2022-10-04T02:54:20;6.65;;;1.63;;
7289;SDS011;63176;52.678;13.250;2022-10-04T02:56:54;2.38;;;1.20;;
7289;SDS011;63176;52.678;13.250;2022-10-04T02:59:21;8.57;;;1.45;;
7289;SDS011;63176;52.678;13.250;2022-10-04T03:01:57;2.85;;;1.15;;
7289;SDS011;63176;52.678;13.250;2022-10-04T03:04:26;5.90;;;1.30;;
7289;SDS011;63176;52.678;13.250;2022-10-04T03:06:58;11.63;;;1.83;;
7289;SDS011;63176;52.678;13.250;2022-10-04T03:09:26;9.85;;;1.73;;
7289;SDS011;63176;52.678;13.250;2022-10-04T03:11:52;7.55;;;1.60;;
7289;SDS011;63176;52.678;13.250;2022-10-04T03:14:22;3.38;;;1.55;;
7289;SDS011;63176;52.678;13.250;2022-10-04T03:16:53;5.32;;;1.30;;
7289;SDS011;63176;52.678;13.250;2022-10-04T03:19:21;11.90;;;1.77;;
7289;SDS011;63176;52.678;13.250;2022-10-04T03:21:48;7.22;;;1.35;;
7289;SDS011;63176;52.678;13.250;2022-10-04T03:24:35;6.78;;;1.55;;
7289;SDS011;63176;52.678;13.250;2022-10-04T03:27:54;4.70;;;1.52;;
7289;SDS011;63176;52.678;13.250;2022-10-04T03:30:02;2.80;;;1.55;;
7289;SDS011;63176;52.678;13.250;2022-10-04T03:32:28;6.80;;;1.55;;
7289;SDS011;63176;52.678;13.250;2022-10-04T03:34:55;3.05;;;1.20;;
7289;SDS011;63176;52.678;13.250;2022-10-04T03:37:24;10.80;;;1.65;;
7289;SDS011;63176;52.678;13.250;2022-10-04T03:39:52;5.55;;;1.65;;
7289;SDS011;63176;52.678;13.250;2022-10-04T03:42:23;2.75;;;1.25;;
7289;SDS011;63176;52.678;13.250;2022-10-04T03:44:53;7.63;;;1.50;;
7289;SDS011;63176;52.678;13.250;2022-10-04T03:47:25;6.97;;;1.75;;
7289;SDS011;63176;52.678;13.250;2022-10-04T03:49:53;6.00;;;2.72;;
7289;SDS011;63176;52.678;13.250;2022-10-04T03:52:23;8.38;;;1.55;;
7289;SDS011;63176;52.678;13.250;2022-10-04T03:54:51;5.75;;;1.75;;
7289;SDS011;63176;52.678;13.250;2022-10-04T03:57:20;4.15;;;1.50;;
7289;SDS011;63176;52.678;13.250;2022-10-04T03:59:47;2.75;;;1.40;;
7289;SDS011;63176;52.678;13.250;2022-10-04T04:02:29;4.10;;;1.30;;
7289;SDS011;63176;52.678;13.250;2022-10-04T04:05:30;2.58;;;1.08;;
7289;SDS011;63176;52.678;13.250;2022-10-04T04:10:57;6.32;;;1.95;;
7289;SDS011;63176;52.678;13.250;2022-10-04T04:16:14;1.55;;;1.40;;
7289;SDS011;63176;52.678;13.250;2022-10-04T04:18:43;5.95;;;1.40;;
7289;SDS011;63176;52.678;13.250;2022-10-04T04:21:11;5.35;;;1.75;;
7289;SDS011;63176;52.678;13.250;2022-10-04T04:23:43;10.63;;;1.35;;
7289;SDS011;63176;52.678;13.250;2022-10-04T04:26:27;10.50;;;1.60;;
7289;SDS011;63176;52.678;13.250;2022-10-04T04:31:30;5.47;;;1.33;;
7289;SDS011;63176;52.678;13.250;2022-10-04T04:33:58;2.42;;;1.40;;
7289;SDS011;63176;52.678;13.250;2022-10-04T04:36:30;6.72;;;1.15;;
7289;SDS011;63176;52.678;13.250;2022-10-04T04:39:06;4.85;;;1.70;;
7289;SDS011;63176;52.678;13.250;2022-10-04T04:41:56;4.75;;;1.45;;
7289;SDS011;63176;52.678;13.250;2022-10-04T04:44:21;10.30;;;1.53;;
7289;SDS011;63176;52.678;13.250;2022-10-04T04:46:47;4.77;;;1.63;;
7289;SDS011;63176;52.678;13.250;2022-10-04T04:49:14;10.20;;;2.10;;
7289;SDS011;63176;52.678;13.250;2022-10-04T04:51:45;6.07;;;2.03;;
7289;SDS011;63176;52.678;13.250;2022-10-04T04:54:16;7.57;;;1.60;;
7289;SDS011;63176;52.678;13.250;2022-10-04T04:56:48;6.03;;;1.92;;
7289;SDS011;63176;52.678;13.250;2022-10-04T04:59:17;7.03;;;1.30;;
7289;SDS011;63176;52.678;13.250;2022-10-04T05:01:45;4.30;;;1.60;;
7289;SDS011;63176;52.678;13.250;2022-10-04T05:06:44;3.40;;;1.30;;
7289;SDS011;63176;52.678;13.250;2022-10-04T05:09:24;8.02;;;1.60;;
7289;SDS011;63176;52.678;13.250;2022-10-04T05:11:54;5.28;;;1.55;;
7289;SDS011;63176;52.678;13.250;2022-10-04T05:14:49;8.20;;;1.95;;
7289;SDS011;63176;52.678;13.250;2022-10-04T05:17:24;2.67;;;1.20;;
7289;SDS011;63176;52.678;13.250;2022-10-04T05:19:58;9.30;;;1.75;;
7289;SDS011;63176;52.678;13.250;2022-10-04T05:22:26;6.03;;;1.35;;
7289;SDS011;63176;52.678;13.250;2022-10-04T05:24:55;3.97;;;1.40;;
7289;SDS011;63176;52.678;13.250;2022-10-04T05:27:40;14.43;;;1.65;;
7289;SDS011;63176;52.678;13.250;2022-10-04T05:33:08;4.70;;;1.50;;
7289;SDS011;63176;52.678;13.250;2022-10-04T05:38:46;2.67;;;1.55;;
7289;SDS011;63176;52.678;13.250;2022-10-04T05:41:28;4.95;;;1.33;;
7289;SDS011;63176;52.678;13.250;2022-10-04T05:43:59;3.25;;;1.40;;
7289;SDS011;63176;52.678;13.250;2022-10-04T05:46:32;2.42;;;1.35;;
7289;SDS011;63176;52.678;13.250;2022-10-04T05:49:06;12.75;;;4.50;;
7289;SDS011;63176;52.678;13.250;2022-10-04T05:52:12;23.63;;;9.35;;
7289;SDS011;63176;52.678;13.250;2022-10-04T05:54:31;16.90;;;8.25;;
7289;SDS011;63176;52.678;13.250;2022-10-04T05:57:12;26.23;;;10.68;;
7289;SDS011;63176;52.678;13.250;2022-10-04T06:07:33;2.88;;;1.20;;
7289;SDS011;63176;52.678;13.250;2022-10-04T06:21:36;3.05;;;1.20;;
7289;SDS011;63176;52.678;13.250;2022-10-04T06:24:22;7.57;;;1.65;;
7289;SDS011;63176;52.678;13.250;2022-10-04T06:26:53;2.97;;;1.23;;
7289;SDS011;63176;52.678;13.250;2022-10-04T06:29:30;5.32;;;1.65;;
7289;SDS011;63176;52.678;13.250;2022-10-04T06:46:06;2.58;;;1.25;;
7289;SDS011;63176;52.678;13.250;2022-10-04T06:48:56;5.55;;;1.50;;
7289;SDS011;63176;52.678;13.250;2022-10-04T07:00:21;13.65;;;1.95;;
7289;SDS011;63176;52.678;13.250;2022-10-04T07:05:27;2.00;;;1.30;;
7289;SDS011;63176;52.678;13.250;2022-10-04T07:08:02;7.35;;;1.35;;
7289;SDS011;63176;52.678;13.250;2022-10-04T07:10:48;3.47;;;1.55;;
7289;SDS011;63176;52.678;13.250;2022-10-04T07:16:23;1.70;;;1.38;;
7289;SDS011;63176;52.678;13.250;2022-10-04T07:19:07;7.28;;;1.67;;
7289;SDS011;63176;52.678;13.250;2022-10-04T07:22:08;3.55;;;1.45;;
7289;SDS011;63176;52.678;13.250;2022-10-04T07:27:28;3.95;;;1.42;;
7289;SDS011;63176;52.678;13.250;2022-10-04T07:30:13;3.45;;;1.10;;
7289;SDS011;63176;52.678;13.250;2022-10-04T07:32:44;6.82;;;1.83;;
7289;SDS011;63176;52.678;13.250;2022-10-04T07:35:14;5.95;;;1.80;;
7289;SDS011;63176;52.678;13.250;2022-10-04T07:38:04;4.43;;;1.85;;
7289;SDS011;63176;52.678;13.250;2022-10-04T07:40:37;3.95;;;1.70;;
7289;SDS011;63176;52.678;13.250;2022-10-04T07:43:12;3.25;;;1.60;;
7289;SDS011;63176;52.678;13.250;2022-10-04T07:45:50;7.95;;;2.00;;
7289;SDS011;63176;52.678;13.250;2022-10-04T07:48:38;3.88;;;1.70;;
7289;SDS011;63176;52.678;13.250;2022-10-04T07:53:44;4.35;;;1.85;;
7289;SDS011;63176;52.678;13.250;2022-10-04T07:56:21;4.20;;;2.25;;
7289;SDS011;63176;52.678;13.250;2022-10-04T08:01:47;5.30;;;2.05;;
7289;SDS011;63176;52.678;13.250;2022-10-04T08:08:07;6.10;;;2.88;;
7289;SDS011;63176;52.678;13.250;2022-10-04T08:20:47;3.78;;;2.80;;
7289;SDS011;63176;52.678;13.250;2022-10-04T08:46:56;6.13;;;2.80;;
7289;SDS011;63176;52.678;13.250;2022-10-04T08:49:38;5.00;;;2.28;;
7289;SDS011;63176;52.678;13.250;2022-10-04T08:55:24;6.30;;;2.40;;
7289;SDS011;63176;52.678;13.250;2022-10-04T09:00:48;5.73;;;2.60;;
7289;SDS011;63176;52.678;13.250;2022-10-04T09:12:12;2.40;;;2.20;;
7289;SDS011;63176;52.678;13.250;2022-10-04T09:23:07;1.67;;;1.57;;
7289;SDS011;63176;52.678;13.250;2022-10-04T09:25:52;2.80;;;1.67;;
7289;SDS011;63176;52.678;13.250;2022-10-04T09:31:47;1.97;;;1.53;;
7289;SDS011;63176;52.678;13.250;2022-10-04T09:48:22;5.40;;;1.40;;
7289;SDS011;63176;52.678;13.250;2022-10-04T10:07:03;3.07;;;1.40;;
7289;SDS011;63176;52.678;13.250;2022-10-04T10:10:54;7.53;;;1.23;;
7289;SDS011;63176;52.678;13.250;2022-10-04T10:24:21;3.97;;;1.43;;
7289;SDS011;63176;52.678;13.250;2022-10-04T10:38:06;1.40;;;1.20;;
7289;SDS011;63176;52.678;13.250;2022-10-04T10:49:25;2.93;;;1.67;;
7289;SDS011;63176;52.678;13.250;2022-10-04T11:17:30;4.37;;;2.20;;
7289;SDS011;63176;52.678;13.250;2022-10-04T11:23:30;2.10;;;1.70;;
7289;SDS011;63176;52.678;13.250;2022-10-04T11:43:38;4.33;;;2.17;;
7289;SDS011;63176;52.678;13.250;2022-10-04T11:57:57;3.27;;;1.60;;
7289;SDS011;63176;52.678;13.250;2022-10-04T12:00:44;6.83;;;1.67;;
7289;SDS011;63176;52.678;13.250;2022-10-04T12:08:35;3.73;;;1.80;;
7289;SDS011;63176;52.678;13.250;2022-10-04T12:22:38;5.47;;;1.73;;
7289;SDS011;63176;52.678;13.250;2022-10-04T12:35:49;7.20;;;1.80;;
7289;SDS011;63176;52.678;13.250;2022-10-04T12:38:27;6.83;;;1.53;;
7289;SDS011;63176;52.678;13.250;2022-10-04T12:49:40;2.60;;;1.30;;
7289;SDS011;63176;52.678;13.250;2022-10-04T12:52:21;2.27;;;0.93;;
7289;SDS011;63176;52.678;13.250;2022-10-04T12:54:52;4.00;;;1.17;;
7289;SDS011;63176;52.678;13.250;2022-10-04T13:00:19;3.10;;;1.00;;
7289;SDS011;63176;52.678;13.250;2022-10-04T13:06:03;5.23;;;1.17;;
7289;SDS011;63176;52.678;13.250;2022-10-04T13:19:23;3.40;;;1.10;;
7289;SDS011;63176;52.678;13.250;2022-10-04T13:24:52;6.53;;;1.80;;
7289;SDS011;63176;52.678;13.250;2022-10-04T13:30:28;2.80;;;1.20;;
7289;SDS011;63176;52.678;13.250;2022-10-04T13:36:05;2.37;;;1.10;;
7289;SDS011;63176;52.678;13.250;2022-10-04T13:38:45;4.03;;;1.30;;
7289;SDS011;63176;52.678;13.250;2022-10-04T13:44:45;4.10;;;0.90;;
7289;SDS011;63176;52.678;13.250;2022-10-04T13:49:50;1.90;;;1.10;;
7289;SDS011;63176;52.678;13.250;2022-10-04T14:01:19;2.17;;;1.30;;
7289;SDS011;63176;52.678;13.250;2022-10-04T14:30:16;3.00;;;1.00;;
7289;SDS011;63176;52.678;13.250;2022-10-04T14:51:35;3.90;;;0.97;;
7289;SDS011;63176;52.678;13.250;2022-10-04T14:57:15;2.40;;;1.10;;
7289;SDS011;63176;52.678;13.250;2022-10-04T15:00:16;8.73;;;1.20;;
7289;SDS011;63176;52.678;13.250;2022-10-04T15:03:04;4.90;;;1.30;;
7289;SDS011;63176;52.678;13.250;2022-10-04T15:06:02;1.00;;;0.70;;
7289;SDS011;63176;52.678;13.250;2022-10-04T15:08:44;4.10;;;0.90;;
7289;SDS011;63176;52.678;13.250;2022-10-04T15:11:13;1.87;;;0.90;;
7289;SDS011;63176;52.678;13.250;2022-10-04T15:13:56;3.97;;;1.30;;
7289;SDS011;63176;52.678;13.250;2022-10-04T15:16:35;2.50;;;1.00;;
7289;SDS011;63176;52.678;13.250;2022-10-04T15:19:08;1.47;;;0.90;;
7289;SDS011;63176;52.678;13.250;2022-10-04T15:21:45;1.87;;;0.90;;
7289;SDS011;63176;52.678;13.250;2022-10-04T15:24:26;3.70;;;1.27;;
7289;SDS011;63176;52.678;13.250;2022-10-04T15:29:30;1.67;;;1.23;;
7289;SDS011;63176;52.678;13.250;2022-10-04T15:37:42;3.83;;;1.27;;
7289;SDS011;63176;52.678;13.250;2022-10-04T15:40:14;2.33;;;1.13;;
7289;SDS011;63176;52.678;13.250;2022-10-04T15:45:33;2.80;;;1.33;;
7289;SDS011;63176;52.678;13.250;2022-10-04T15:59:21;2.60;;;1.10;;
7289;SDS011;63176;52.678;13.250;2022-10-04T16:05:19;2.90;;;0.90;;
7289;SDS011;63176;52.678;13.250;2022-10-04T16:13:44;7.23;;;1.10;;
7289;SDS011;63176;52.678;13.250;2022-10-04T16:32:17;3.20;;;1.20;;
7289;SDS011;63176;52.678;13.250;2022-10-04T16:34:58;6.57;;;1.20;;
7289;SDS011;63176;52.678;13.250;2022-10-04T16:51:29;4.13;;;1.23;;
7289;SDS011;63176;52.678;13.250;2022-10-04T17:02:23;4.93;;;2.00;;
7289;SDS011;63176;52.678;13.250;2022-10-04T17:04:54;6.05;;;1.80;;
7289;SDS011;63176;52.678;13.250;2022-10-04T17:21:03;2.60;;;1.70;;
7289;SDS011;63176;52.678;13.250;2022-10-04T17:32:24;9.65;;;3.30;;
7289;SDS011;63176;52.678;13.250;2022-10-04T17:35:04;4.97;;;3.70;;
7289;SDS011;63176;52.678;13.250;2022-10-04T17:38:01;11.73;;;5.82;;
7289;SDS011;63176;52.678;13.250;2022-10-04T17:43:37;7.38;;;4.97;;
7289;SDS011;63176;52.678;13.250;2022-10-04T17:49:11;7.05;;;3.60;;
7289;SDS011;63176;52.678;13.250;2022-10-04T17:52:01;5.20;;;3.00;;
7289;SDS011;63176;52.678;13.250;2022-10-04T17:54:54;3.60;;;3.20;;
7289;SDS011;63176;52.678;13.250;2022-10-04T17:57:50;4.70;;;2.83;;
7289;SDS011;63176;52.678;13.250;2022-10-04T18:00:26;5.80;;;2.80;;
7289;SDS011;63176;52.678;13.250;2022-10-04T18:03:07;4.45;;;3.20;;
7289;SDS011;63176;52.678;13.250;2022-10-04T18:11:02;7.22;;;2.40;;
7289;SDS011;63176;52.678;13.250;2022-10-04T18:13:39;6.63;;;3.20;;
7289;SDS011;63176;52.678;13.250;2022-10-04T18:19:07;3.95;;;3.53;;
7289;SDS011;63176;52.678;13.250;2022-10-04T18:22:16;4.10;;;3.63;;
7289;SDS011;63176;52.678;13.250;2022-10-04T18:24:44;3.53;;;3.22;;
7289;SDS011;63176;52.678;13.250;2022-10-04T18:27:16;7.78;;;3.88;;
7289;SDS011;63176;52.678;13.250;2022-10-04T18:29:57;11.00;;;4.68;;
7289;SDS011;63176;52.678;13.250;2022-10-04T18:34:56;7.50;;;5.07;;
7289;SDS011;63176;52.678;13.250;2022-10-04T18:37:36;15.20;;;6.50;;
7289;SDS011;63176;52.678;13.250;2022-10-04T18:40:16;12.88;;;6.10;;
7289;SDS011;63176;52.678;13.250;2022-10-04T18:42:57;7.13;;;5.50;;
7289;SDS011;63176;52.678;13.250;2022-10-04T18:45:26;9.27;;;5.20;;
7289;SDS011;63176;52.678;13.250;2022-10-04T18:47:53;6.53;;;4.30;;
7289;SDS011;63176;52.678;13.250;2022-10-04T18:53:04;6.63;;;3.95;;
7289;SDS011;63176;52.678;13.250;2022-10-04T18:55:55;6.88;;;3.47;;
7289;SDS011;63176;52.678;13.250;2022-10-04T19:07:16;5.45;;;3.22;;
7289;SDS011;63176;52.678;13.250;2022-10-04T19:21:13;2.42;;;2.22;;
7289;SDS011;63176;52.678;13.250;2022-10-04T19:26:11;4.00;;;2.67;;
7289;SDS011;63176;52.678;13.250;2022-10-04T19:28:44;3.42;;;2.60;;
7289;SDS011;63176;52.678;13.250;2022-10-04T19:31:33;2.33;;;2.10;;
7289;SDS011;63176;52.678;13.250;2022-10-04T19:34:19;3.03;;;2.58;;
7289;SDS011;63176;52.678;13.250;2022-10-04T19:43:19;7.32;;;2.45;;
7289;SDS011;63176;52.678;13.250;2022-10-04T19:48:51;2.50;;;2.30;;
7289;SDS011;63176;52.678;13.250;2022-10-04T19:54:16;3.67;;;2.95;;
7289;SDS011;63176;52.678;13.250;2022-10-04T19:56:48;3.75;;;3.08;;
7289;SDS011;63176;52.678;13.250;2022-10-04T19:59:34;5.95;;;2.47;;
7289;SDS011;63176;52.678;13.250;2022-10-04T20:02:11;6.68;;;5.35;;
7289;SDS011;63176;52.678;13.250;2022-10-04T20:04:37;4.15;;;3.75;;
7289;SDS011;63176;52.678;13.250;2022-10-04T20:07:05;5.53;;;3.47;;
7289;SDS011;63176;52.678;13.250;2022-10-04T20:12:01;2.97;;;2.70;;
7289;SDS011;63176;52.678;13.250;2022-10-04T20:27:05;2.58;;;2.00;;
7289;SDS011;63176;52.678;13.250;2022-10-04T20:32:05;2.70;;;2.25;;
7289;SDS011;63176;52.678;13.250;2022-10-04T20:37:02;10.80;;;2.63;;
7289;SDS011;63176;52.678;13.250;2022-10-04T20:42:07;2.95;;;2.30;;
7289;SDS011;63176;52.678;13.250;2022-10-04T20:49:51;3.90;;;2.70;;
7289;SDS011;63176;52.678;13.250;2022-10-04T20:52:21;4.22;;;3.33;;
7289;SDS011;63176;52.678;13.250;2022-10-04T20:54:52;2.67;;;2.45;;
7289;SDS011;63176;52.678;13.250;2022-10-04T20:57:19;7.47;;;3.03;;
7289;SDS011;63176;52.678;13.250;2022-10-04T20:59:48;5.35;;;2.78;;
7289;SDS011;63176;52.678;13.250;2022-10-04T21:02:18;3.10;;;2.60;;
7289;SDS011;63176;52.678;13.250;2022-10-04T21:04:44;5.10;;;2.83;;
7289;SDS011;63176;52.678;13.250;2022-10-04T21:07:22;3.28;;;2.17;;
7289;SDS011;63176;52.678;13.250;2022-10-04T21:09:49;3.30;;;2.72;;
7289;SDS011;63176;52.678;13.250;2022-10-04T21:12:36;2.75;;;2.55;;
7289;SDS011;63176;52.678;13.250;2022-10-04T21:17:40;3.75;;;2.25;;
7289;SDS011;63176;52.678;13.250;2022-10-04T21:20:13;2.70;;;2.30;;
7289;SDS011;63176;52.678;13.250;2022-10-04T21:23:15;2.40;;;2.20;;
7289;SDS011;63176;52.678;13.250;2022-10-04T21:25:44;2.58;;;2.05;;
7289;SDS011;63176;52.678;13.250;2022-10-04T21:28:23;7.57;;;2.50;;
7289;SDS011;63176;52.678;13.250;2022-10-04T21:30:55;4.38;;;2.55;;
7289;SDS011;63176;52.678;13.250;2022-10-04T21:33:21;3.90;;;2.00;;
7289;SDS011;63176;52.678;13.250;2022-10-04T21:35:50;3.33;;;2.30;;
7289;SDS011;63176;52.678;13.250;2022-10-04T21:38:16;3.53;;;1.90;;
7289;SDS011;63176;52.678;13.250;2022-10-04T21:40:42;3.33;;;2.13;;
7289;SDS011;63176;52.678;13.250;2022-10-04T21:43:08;4.03;;;2.13;;
7289;SDS011;63176;52.678;13.250;2022-10-04T21:45:33;5.17;;;1.83;;
7289;SDS011;63176;52.678;13.250;2022-10-04T21:47:59;6.90;;;2.80;;
7289;SDS011;63176;52.678;13.250;2022-10-04T21:50:24;3.90;;;2.13;;
7289;SDS011;63176;52.678;13.250;2022-10-04T21:52:50;5.80;;;2.17;;
7289;SDS011;63176;52.678;13.250;2022-10-04T21:55:16;2.43;;;2.13;;
7289;SDS011;63176;52.678;13.250;2022-10-04T21:57:41;3.20;;;1.83;;
7289;SDS011;63176;52.678;13.250;2022-10-04T22:00:07;2.43;;;2.07;;
7289;SDS011;63176;52.678;13.250;2022-10-04T22:02:33;3.35;;;2.22;;
7289;SDS011;63176;52.678;13.250;2022-10-04T22:04:59;3.47;;;1.87;;
7289;SDS011;63176;52.678;13.250;2022-10-04T22:07:25;2.23;;;1.80;;
7289;SDS011;63176;52.678;13.250;2022-10-04T22:09:50;2.53;;;2.33;;
7289;SDS011;63176;52.678;13.250;2022-10-04T22:12:16;4.43;;;2.07;;
7289;SDS011;63176;52.678;13.250;2022-10-04T22:14:41;2.47;;;1.87;;
7289;SDS011;63176;52.678;13.250;2022-10-04T22:17:07;4.30;;;2.10;;
7289;SDS011;63176;52.678;13.250;2022-10-04T22:19:32;2.00;;;1.53;;
7289;SDS011;63176;52.678;13.250;2022-10-04T22:21:58;3.63;;;2.17;;
7289;SDS011;63176;52.678;13.250;2022-10-04T22:24:24;3.80;;;1.90;;
7289;SDS011;63176;52.678;13.250;2022-10-04T22:26:49;4.30;;;2.10;;
7289;SDS011;63176;52.678;13.250;2022-10-04T22:29:16;4.87;;;2.27;;
7289;SDS011;63176;52.678;13.250;2022-10-04T22:31:43;2.58;;;2.35;;
7289;SDS011;63176;52.678;13.250;2022-10-04T22:34:14;3.75;;;2.22;;
7289;SDS011;63176;52.678;13.250;2022-10-04T22:36:43;3.60;;;1.85;;
7289;SDS011;63176;52.678;13.250;2022-10-04T22:39:13;3.15;;;2.33;;
7289;SDS011;63176;52.678;13.250;2022-10-04T22:46:45;2.28;;;2.08;;
7289;SDS011;63176;52.678;13.250;2022-10-04T22:49:17;6.43;;;2.38;;
7289;SDS011;63176;52.678;13.250;2022-10-04T22:51:46;5.75;;;2.50;;
7289;SDS011;63176;52.678;13.250;2022-10-04T22:54:17;3.80;;;2.40;;
7289;SDS011;63176;52.678;13.250;2022-10-04T22:56:45;5.32;;;2.30;;
7289;SDS011;63176;52.678;13.250;2022-10-04T22:59:12;2.75;;;2.08;;
7289;SDS011;63176;52.678;13.250;2022-10-04T23:01:39;9.85;;;2.38;;
7289;SDS011;63176;52.678;13.250;2022-10-04T23:04:39;3.45;;;1.83;;
7289;SDS011;63176;52.678;13.250;2022-10-04T23:06:57;4.28;;;1.98;;
7289;SDS011;63176;52.678;13.250;2022-10-04T23:09:23;2.60;;;2.30;;
7289;SDS011;63176;52.678;13.250;2022-10-04T23:11:48;2.87;;;1.90;;
7289;SDS011;63176;52.678;13.250;2022-10-04T23:14:14;4.57;;;2.17;;
7289;SDS011;63176;52.678;13.250;2022-10-04T23:16:40;3.37;;;1.97;;
7289;SDS011;63176;52.678;13.250;2022-10-04T23:19:16;6.22;;;2.70;;
7289;SDS011;63176;52.678;13.250;2022-10-04T23:21:44;2.40;;;2.00;;
7289;SDS011;63176;52.678;13.250;2022-10-04T23:24:14;7.13;;;1.50;;
7289;SDS011;63176;52.678;13.250;2022-10-04T23:26:42;5.90;;;2.28;;
7289;SDS011;63176;52.678;13.250;2022-10-04T23:29:13;3.22;;;1.83;;
7289;SDS011;63176;52.678;13.250;2022-10-04T23:31:58;2.58;;;2.33;;
7289;SDS011;63176;52.678;13.250;2022-10-04T23:34:33;8.82;;;2.80;;
7289;SDS011;63176;52.678;13.250;2022-10-04T23:37:01;2.05;;;1.92;;
7289;SDS011;63176;52.678;13.250;2022-10-04T23:39:32;2.65;;;2.40;;
7289;SDS011;63176;52.678;13.250;2022-10-04T23:41:59;6.03;;;2.00;;
7289;SDS011;63176;52.678;13.250;2022-10-04T23:44:28;3.85;;;2.05;;
7289;SDS011;63176;52.678;13.250;2022-10-04T23:46:59;2.50;;;2.28;;
7289;SDS011;63176;52.678;13.250;2022-10-04T23:49:25;2.42;;;2.17;;
7289;SDS011;63176;52.678;13.250;2022-10-04T23:51:55;4.20;;;2.25;;
7289;SDS011;63176;52.678;13.250;2022-10-04T23:54:24;2.08;;;1.95;;
7289;SDS011;63176;52.678;13.250;2022-10-04T23:56:50;4.67;;;3.93;;
7289;SDS011;63176;52.678;13.250;2022-10-04T23:59:17;7.17;;;2.37;;
